sensor_id;sensor_type;location;lat;lon;timestamp;P1;durP1;ratioP1;P2;durP2;ratioP2
41897;SDS011;27576;53.366;-1.498;2023-06-22T00:01:05;5.38;;;4.85;;
41897;SDS011;27576;53.366;-1.498;2023-06-22T00:03:31;5.15;;;4.30;;
41897;SDS011;27576;53.366;-1.498;2023-06-22T00:05:56;6.00;;;5.40;;
41897;SDS011;27576;53.366;-1.498;2023-06-22T00:08:22;6.30;;;4.88;;
41897;SDS011;27576;53.366;-1.498;2023-06-22T00:10:47;5.20;;;4.38;;
41897;SDS011;27576;53.366;-1.498;2023-06-22T00:13:13;5.30;;;4.72;;
41897;SDS011;27576;53.366;-1.498;2023-06-22T00:15:40;5.32;;;4.82;;
41897;SDS011;27576;53.366;-1.498;2023-06-22T00:18:07;5.75;;;4.47;;
41897;SDS011;27576;53.366;-1.498;2023-06-22T00:20:33;8.65;;;5.15;;
41897;SDS011;27576;53.366;-1.498;2023-06-22T00:23:02;5.47;;;4.70;;
41897;SDS011;27576;53.366;-1.498;2023-06-22T00:25:36;5.97;;;5.32;;
41897;SDS011;27576;53.366;-1.498;2023-06-22T00:28:03;5.85;;;4.95;;
41897;SDS011;27576;53.366;-1.498;2023-06-22T00:30:30;5.22;;;4.72;;
41897;SDS011;27576;53.366;-1.498;2023-06-22T00:32:56;5.93;;;5.32;;
41897;SDS011;27576;53.366;-1.498;2023-06-22T00:35:22;5.90;;;5.18;;
41897;SDS011;27576;53.366;-1.498;2023-06-22T00:37:47;5.40;;;4.90;;
41897;SDS011;27576;53.366;-1.498;2023-06-22T00:40:13;5.00;;;4.47;;
41897;SDS011;27576;53.366;-1.498;2023-06-22T00:42:39;5.65;;;5.03;;
41897;SDS011;27576;53.366;-1.498;2023-06-22T00:45:05;5.35;;;4.80;;
41897;SDS011;27576;53.366;-1.498;2023-06-22T00:47:31;6.40;;;4.97;;
41897;SDS011;27576;53.366;-1.498;2023-06-22T00:49:59;7.25;;;5.63;;
41897;SDS011;27576;53.366;-1.498;2023-06-22T00:52:25;5.45;;;4.95;;
41897;SDS011;27576;53.366;-1.498;2023-06-22T00:54:54;4.82;;;4.43;;
41897;SDS011;27576;53.366;-1.498;2023-06-22T00:57:21;6.18;;;4.72;;
41897;SDS011;27576;53.366;-1.498;2023-06-22T00:59:48;6.22;;;4.93;;
41897;SDS011;27576;53.366;-1.498;2023-06-22T01:02:14;7.80;;;5.45;;
41897;SDS011;27576;53.366;-1.498;2023-06-22T01:04:39;5.78;;;5.10;;
41897;SDS011;27576;53.366;-1.498;2023-06-22T01:12:34;5.78;;;5.00;;
41897;SDS011;27576;53.366;-1.498;2023-06-22T01:15:08;6.85;;;4.82;;
41897;SDS011;27576;53.366;-1.498;2023-06-22T01:17:40;6.65;;;5.05;;
41897;SDS011;27576;53.366;-1.498;2023-06-22T01:20:08;7.63;;;5.45;;
41897;SDS011;27576;53.366;-1.498;2023-06-22T01:22:43;7.50;;;5.63;;
41897;SDS011;27576;53.366;-1.498;2023-06-22T01:25:32;6.10;;;5.22;;
41897;SDS011;27576;53.366;-1.498;2023-06-22T01:28:06;6.15;;;4.88;;
41897;SDS011;27576;53.366;-1.498;2023-06-22T01:30:34;6.68;;;5.45;;
41897;SDS011;27576;53.366;-1.498;2023-06-22T01:33:00;7.32;;;4.97;;
41897;SDS011;27576;53.366;-1.498;2023-06-22T01:35:27;6.05;;;5.03;;
41897;SDS011;27576;53.366;-1.498;2023-06-22T01:37:54;8.05;;;5.00;;
41897;SDS011;27576;53.366;-1.498;2023-06-22T01:40:20;5.50;;;4.95;;
41897;SDS011;27576;53.366;-1.498;2023-06-22T01:42:46;5.95;;;5.10;;
41897;SDS011;27576;53.366;-1.498;2023-06-22T01:45:13;5.35;;;4.85;;
41897;SDS011;27576;53.366;-1.498;2023-06-22T01:47:39;4.88;;;4.47;;
41897;SDS011;27576;53.366;-1.498;2023-06-22T01:50:06;5.78;;;5.03;;
41897;SDS011;27576;53.366;-1.498;2023-06-22T01:52:32;14.65;;;4.95;;
41897;SDS011;27576;53.366;-1.498;2023-06-22T01:54:59;7.35;;;5.60;;
41897;SDS011;27576;53.366;-1.498;2023-06-22T01:57:25;6.25;;;4.75;;
41897;SDS011;27576;53.366;-1.498;2023-06-22T01:59:53;6.60;;;4.80;;
41897;SDS011;27576;53.366;-1.498;2023-06-22T02:02:32;8.20;;;5.18;;
41897;SDS011;27576;53.366;-1.498;2023-06-22T02:05:03;5.35;;;4.70;;
41897;SDS011;27576;53.366;-1.498;2023-06-22T02:07:32;6.13;;;5.05;;
41897;SDS011;27576;53.366;-1.498;2023-06-22T02:10:04;6.00;;;4.90;;
41897;SDS011;27576;53.366;-1.498;2023-06-22T02:12:32;5.88;;;5.05;;
41897;SDS011;27576;53.366;-1.498;2023-06-22T02:14:59;7.70;;;5.30;;
41897;SDS011;27576;53.366;-1.498;2023-06-22T02:17:26;6.22;;;5.60;;
41897;SDS011;27576;53.366;-1.498;2023-06-22T02:19:51;7.10;;;5.20;;
41897;SDS011;27576;53.366;-1.498;2023-06-22T02:22:17;5.72;;;5.18;;
41897;SDS011;27576;53.366;-1.498;2023-06-22T02:24:42;6.20;;;5.50;;
41897;SDS011;27576;53.366;-1.498;2023-06-22T02:27:08;7.68;;;5.15;;
41897;SDS011;27576;53.366;-1.498;2023-06-22T02:29:33;7.43;;;5.60;;
41897;SDS011;27576;53.366;-1.498;2023-06-22T02:31:58;6.78;;;5.18;;
41897;SDS011;27576;53.366;-1.498;2023-06-22T02:34:24;6.38;;;5.18;;
41897;SDS011;27576;53.366;-1.498;2023-06-22T02:36:50;6.05;;;4.80;;
41897;SDS011;27576;53.366;-1.498;2023-06-22T02:39:25;6.18;;;5.15;;
41897;SDS011;27576;53.366;-1.498;2023-06-22T02:41:52;5.18;;;4.70;;
41897;SDS011;27576;53.366;-1.498;2023-06-22T02:44:19;6.05;;;4.70;;
41897;SDS011;27576;53.366;-1.498;2023-06-22T02:46:45;6.97;;;5.32;;
41897;SDS011;27576;53.366;-1.498;2023-06-22T02:49:11;6.13;;;5.18;;
41897;SDS011;27576;53.366;-1.498;2023-06-22T02:51:42;6.13;;;5.53;;
41897;SDS011;27576;53.366;-1.498;2023-06-22T02:54:10;6.40;;;4.03;;
41897;SDS011;27576;53.366;-1.498;2023-06-22T02:56:35;9.60;;;4.75;;
41897;SDS011;27576;53.366;-1.498;2023-06-22T02:59:02;5.20;;;4.60;;
41897;SDS011;27576;53.366;-1.498;2023-06-22T03:01:27;6.93;;;4.85;;
41897;SDS011;27576;53.366;-1.498;2023-06-22T03:03:55;5.57;;;4.97;;
41897;SDS011;27576;53.366;-1.498;2023-06-22T03:06:20;5.32;;;4.50;;
41897;SDS011;27576;53.366;-1.498;2023-06-22T03:08:54;6.15;;;5.00;;
41897;SDS011;27576;53.366;-1.498;2023-06-22T03:11:24;6.20;;;4.82;;
41897;SDS011;27576;53.366;-1.498;2023-06-22T03:13:50;5.78;;;4.47;;
41897;SDS011;27576;53.366;-1.498;2023-06-22T03:16:17;6.40;;;4.70;;
41897;SDS011;27576;53.366;-1.498;2023-06-22T03:18:42;4.70;;;4.28;;
41897;SDS011;27576;53.366;-1.498;2023-06-22T03:21:08;5.15;;;4.65;;
41897;SDS011;27576;53.366;-1.498;2023-06-22T03:23:33;5.00;;;4.57;;
41897;SDS011;27576;53.366;-1.498;2023-06-22T03:25:59;5.63;;;5.00;;
41897;SDS011;27576;53.366;-1.498;2023-06-22T03:28:24;5.55;;;5.03;;
41897;SDS011;27576;53.366;-1.498;2023-06-22T03:30:49;5.03;;;4.45;;
41897;SDS011;27576;53.366;-1.498;2023-06-22T03:33:15;6.35;;;4.85;;
41897;SDS011;27576;53.366;-1.498;2023-06-22T03:35:40;7.30;;;4.72;;
41897;SDS011;27576;53.366;-1.498;2023-06-22T03:38:05;5.38;;;4.88;;
41897;SDS011;27576;53.366;-1.498;2023-06-22T03:40:31;6.13;;;4.70;;
41897;SDS011;27576;53.366;-1.498;2023-06-22T03:42:56;5.55;;;4.95;;
41897;SDS011;27576;53.366;-1.498;2023-06-22T03:45:21;4.65;;;4.25;;
41897;SDS011;27576;53.366;-1.498;2023-06-22T03:47:47;4.25;;;3.83;;
41897;SDS011;27576;53.366;-1.498;2023-06-22T03:50:12;4.95;;;4.45;;
41897;SDS011;27576;53.366;-1.498;2023-06-22T03:52:38;8.95;;;5.38;;
41897;SDS011;27576;53.366;-1.498;2023-06-22T03:55:04;5.35;;;4.80;;
41897;SDS011;27576;53.366;-1.498;2023-06-22T03:57:30;7.50;;;5.07;;
41897;SDS011;27576;53.366;-1.498;2023-06-22T03:59:56;7.47;;;4.85;;
41897;SDS011;27576;53.366;-1.498;2023-06-22T04:02:22;5.32;;;4.82;;
41897;SDS011;27576;53.366;-1.498;2023-06-22T04:04:48;5.57;;;4.75;;
41897;SDS011;27576;53.366;-1.498;2023-06-22T04:07:13;5.05;;;4.55;;
41897;SDS011;27576;53.366;-1.498;2023-06-22T04:09:38;6.18;;;5.03;;
41897;SDS011;27576;53.366;-1.498;2023-06-22T04:12:04;6.07;;;5.15;;
41897;SDS011;27576;53.366;-1.498;2023-06-22T04:14:30;5.72;;;5.13;;
41897;SDS011;27576;53.366;-1.498;2023-06-22T04:16:55;9.73;;;5.47;;
41897;SDS011;27576;53.366;-1.498;2023-06-22T04:19:21;10.20;;;5.15;;
41897;SDS011;27576;53.366;-1.498;2023-06-22T04:21:47;5.85;;;5.28;;
41897;SDS011;27576;53.366;-1.498;2023-06-22T04:24:13;5.72;;;5.22;;
41897;SDS011;27576;53.366;-1.498;2023-06-22T04:26:39;4.78;;;4.22;;
41897;SDS011;27576;53.366;-1.498;2023-06-22T04:29:06;5.80;;;5.22;;
41897;SDS011;27576;53.366;-1.498;2023-06-22T04:31:33;4.80;;;4.40;;
41897;SDS011;27576;53.366;-1.498;2023-06-22T04:34:02;5.43;;;4.93;;
41897;SDS011;27576;53.366;-1.498;2023-06-22T04:36:35;7.85;;;5.07;;
41897;SDS011;27576;53.366;-1.498;2023-06-22T04:39:06;4.93;;;4.32;;
41897;SDS011;27576;53.366;-1.498;2023-06-22T04:41:38;5.93;;;4.55;;
41897;SDS011;27576;53.366;-1.498;2023-06-22T04:44:08;6.10;;;4.82;;
41897;SDS011;27576;53.366;-1.498;2023-06-22T04:46:58;8.38;;;4.80;;
41897;SDS011;27576;53.366;-1.498;2023-06-22T04:49:33;4.43;;;4.03;;
41897;SDS011;27576;53.366;-1.498;2023-06-22T04:52:05;6.70;;;5.03;;
41897;SDS011;27576;53.366;-1.498;2023-06-22T04:54:32;5.30;;;4.80;;
41897;SDS011;27576;53.366;-1.498;2023-06-22T04:57:01;6.45;;;4.88;;
41897;SDS011;27576;53.366;-1.498;2023-06-22T04:59:28;5.30;;;4.80;;
41897;SDS011;27576;53.366;-1.498;2023-06-22T05:01:58;5.57;;;5.07;;
41897;SDS011;27576;53.366;-1.498;2023-06-22T05:04:24;5.85;;;4.97;;
41897;SDS011;27576;53.366;-1.498;2023-06-22T05:06:51;6.30;;;4.63;;
41897;SDS011;27576;53.366;-1.498;2023-06-22T05:09:17;7.53;;;4.97;;
41897;SDS011;27576;53.366;-1.498;2023-06-22T05:11:43;4.95;;;4.55;;
41897;SDS011;27576;53.366;-1.498;2023-06-22T05:14:09;5.80;;;5.22;;
41897;SDS011;27576;53.366;-1.498;2023-06-22T05:16:35;5.40;;;4.50;;
41897;SDS011;27576;53.366;-1.498;2023-06-22T05:19:01;5.85;;;4.90;;
41897;SDS011;27576;53.366;-1.498;2023-06-22T05:21:28;7.25;;;5.55;;
41897;SDS011;27576;53.366;-1.498;2023-06-22T05:23:55;5.55;;;5.05;;
41897;SDS011;27576;53.366;-1.498;2023-06-22T05:26:24;6.07;;;5.28;;
41897;SDS011;27576;53.366;-1.498;2023-06-22T05:28:50;6.57;;;4.97;;
41897;SDS011;27576;53.366;-1.498;2023-06-22T05:31:16;7.75;;;5.65;;
41897;SDS011;27576;53.366;-1.498;2023-06-22T05:33:44;7.35;;;5.47;;
41897;SDS011;27576;53.366;-1.498;2023-06-22T05:36:10;8.27;;;5.88;;
41897;SDS011;27576;53.366;-1.498;2023-06-22T05:38:36;5.85;;;5.25;;
41897;SDS011;27576;53.366;-1.498;2023-06-22T05:41:01;8.02;;;6.05;;
41897;SDS011;27576;53.366;-1.498;2023-06-22T05:43:27;6.15;;;5.15;;
41897;SDS011;27576;53.366;-1.498;2023-06-22T05:45:52;7.90;;;5.85;;
41897;SDS011;27576;53.366;-1.498;2023-06-22T05:48:18;9.27;;;5.97;;
41897;SDS011;27576;53.366;-1.498;2023-06-22T05:50:43;8.02;;;6.22;;
41897;SDS011;27576;53.366;-1.498;2023-06-22T05:53:09;9.77;;;5.93;;
41897;SDS011;27576;53.366;-1.498;2023-06-22T05:55:35;6.45;;;5.80;;
41897;SDS011;27576;53.366;-1.498;2023-06-22T05:58:00;6.22;;;5.15;;
41897;SDS011;27576;53.366;-1.498;2023-06-22T06:00:26;7.03;;;5.20;;
41897;SDS011;27576;53.366;-1.498;2023-06-22T06:02:51;7.05;;;5.40;;
41897;SDS011;27576;53.366;-1.498;2023-06-22T06:05:17;6.40;;;5.00;;
41897;SDS011;27576;53.366;-1.498;2023-06-22T06:07:43;7.60;;;5.70;;
41897;SDS011;27576;53.366;-1.498;2023-06-22T06:10:09;7.72;;;5.80;;
41897;SDS011;27576;53.366;-1.498;2023-06-22T06:12:35;6.13;;;5.10;;
41897;SDS011;27576;53.366;-1.498;2023-06-22T06:15:01;4.78;;;4.28;;
41897;SDS011;27576;53.366;-1.498;2023-06-22T06:17:26;5.70;;;4.32;;
41897;SDS011;27576;53.366;-1.498;2023-06-22T06:19:52;5.85;;;5.00;;
41897;SDS011;27576;53.366;-1.498;2023-06-22T06:22:17;5.60;;;4.07;;
41897;SDS011;27576;53.366;-1.498;2023-06-22T06:24:44;4.15;;;3.67;;
41897;SDS011;27576;53.366;-1.498;2023-06-22T06:27:09;4.18;;;3.78;;
41897;SDS011;27576;53.366;-1.498;2023-06-22T06:29:34;5.25;;;3.75;;
41897;SDS011;27576;53.366;-1.498;2023-06-22T06:32:00;4.55;;;3.78;;
41897;SDS011;27576;53.366;-1.498;2023-06-22T06:34:25;5.53;;;3.80;;
41897;SDS011;27576;53.366;-1.498;2023-06-22T06:36:51;4.85;;;3.83;;
41897;SDS011;27576;53.366;-1.498;2023-06-22T06:39:16;4.95;;;4.00;;
41897;SDS011;27576;53.366;-1.498;2023-06-22T06:41:41;4.70;;;3.80;;
41897;SDS011;27576;53.366;-1.498;2023-06-22T06:44:07;5.25;;;3.67;;
41897;SDS011;27576;53.366;-1.498;2023-06-22T06:46:32;7.32;;;3.92;;
41897;SDS011;27576;53.366;-1.498;2023-06-22T06:48:58;4.10;;;3.70;;
41897;SDS011;27576;53.366;-1.498;2023-06-22T06:51:23;4.63;;;3.90;;
41897;SDS011;27576;53.366;-1.498;2023-06-22T06:53:49;4.75;;;3.55;;
41897;SDS011;27576;53.366;-1.498;2023-06-22T06:56:14;3.83;;;3.47;;
41897;SDS011;27576;53.366;-1.498;2023-06-22T06:58:41;3.50;;;3.20;;
41897;SDS011;27576;53.366;-1.498;2023-06-22T07:01:11;6.55;;;3.70;;
41897;SDS011;27576;53.366;-1.498;2023-06-22T07:03:37;3.80;;;3.40;;
41897;SDS011;27576;53.366;-1.498;2023-06-22T07:06:02;6.30;;;4.28;;
41897;SDS011;27576;53.366;-1.498;2023-06-22T07:08:29;4.63;;;3.80;;
41897;SDS011;27576;53.366;-1.498;2023-06-22T07:10:54;4.53;;;3.70;;
41897;SDS011;27576;53.366;-1.498;2023-06-22T07:13:20;4.10;;;3.38;;
41897;SDS011;27576;53.366;-1.498;2023-06-22T07:15:45;3.72;;;3.40;;
41897;SDS011;27576;53.366;-1.498;2023-06-22T07:18:11;7.45;;;4.00;;
41897;SDS011;27576;53.366;-1.498;2023-06-22T07:20:36;4.70;;;4.15;;
41897;SDS011;27576;53.366;-1.498;2023-06-22T07:23:02;3.92;;;3.58;;
41897;SDS011;27576;53.366;-1.498;2023-06-22T07:25:28;4.63;;;3.80;;
41897;SDS011;27576;53.366;-1.498;2023-06-22T07:28:00;6.05;;;3.85;;
41897;SDS011;27576;53.366;-1.498;2023-06-22T07:30:28;4.30;;;3.60;;
41897;SDS011;27576;53.366;-1.498;2023-06-22T07:32:54;3.97;;;3.53;;
41897;SDS011;27576;53.366;-1.498;2023-06-22T07:35:20;4.30;;;3.80;;
41897;SDS011;27576;53.366;-1.498;2023-06-22T07:37:45;4.43;;;3.30;;
41897;SDS011;27576;53.366;-1.498;2023-06-22T07:40:11;4.25;;;3.83;;
41897;SDS011;27576;53.366;-1.498;2023-06-22T07:42:37;3.95;;;3.55;;
41897;SDS011;27576;53.366;-1.498;2023-06-22T07:45:03;3.95;;;3.53;;
41897;SDS011;27576;53.366;-1.498;2023-06-22T07:47:29;4.32;;;3.92;;
41897;SDS011;27576;53.366;-1.498;2023-06-22T07:49:55;4.20;;;3.45;;
41897;SDS011;27576;53.366;-1.498;2023-06-22T07:52:23;4.28;;;3.35;;
41897;SDS011;27576;53.366;-1.498;2023-06-22T07:54:49;3.72;;;3.25;;
41897;SDS011;27576;53.366;-1.498;2023-06-22T07:57:14;5.25;;;3.70;;
41897;SDS011;27576;53.366;-1.498;2023-06-22T07:59:40;3.55;;;3.00;;
41897;SDS011;27576;53.366;-1.498;2023-06-22T08:02:05;4.68;;;3.10;;
41897;SDS011;27576;53.366;-1.498;2023-06-22T08:04:31;6.53;;;3.33;;
41897;SDS011;27576;53.366;-1.498;2023-06-22T08:06:59;7.45;;;3.60;;
41897;SDS011;27576;53.366;-1.498;2023-06-22T08:09:24;3.92;;;2.65;;
41897;SDS011;27576;53.366;-1.498;2023-06-22T08:11:49;4.45;;;3.60;;
41897;SDS011;27576;53.366;-1.498;2023-06-22T08:14:15;5.65;;;4.10;;
41897;SDS011;27576;53.366;-1.498;2023-06-22T08:16:41;4.38;;;3.90;;
41897;SDS011;27576;53.366;-1.498;2023-06-22T08:19:07;7.43;;;3.88;;
41897;SDS011;27576;53.366;-1.498;2023-06-22T08:21:32;5.35;;;3.55;;
41897;SDS011;27576;53.366;-1.498;2023-06-22T08:23:58;5.65;;;3.45;;
41897;SDS011;27576;53.366;-1.498;2023-06-22T08:26:23;5.00;;;3.60;;
41897;SDS011;27576;53.366;-1.498;2023-06-22T08:28:49;5.05;;;3.95;;
41897;SDS011;27576;53.366;-1.498;2023-06-22T08:31:14;8.10;;;3.80;;
41897;SDS011;27576;53.366;-1.498;2023-06-22T08:33:39;4.03;;;3.40;;
41897;SDS011;27576;53.366;-1.498;2023-06-22T08:36:05;4.78;;;3.15;;
41897;SDS011;27576;53.366;-1.498;2023-06-22T08:38:31;6.03;;;4.15;;
41897;SDS011;27576;53.366;-1.498;2023-06-22T08:40:57;4.05;;;2.85;;
41897;SDS011;27576;53.366;-1.498;2023-06-22T08:43:22;4.03;;;3.40;;
41897;SDS011;27576;53.366;-1.498;2023-06-22T08:45:48;4.57;;;3.25;;
41897;SDS011;27576;53.366;-1.498;2023-06-22T08:48:13;3.75;;;3.28;;
41897;SDS011;27576;53.366;-1.498;2023-06-22T08:50:39;5.57;;;3.67;;
41897;SDS011;27576;53.366;-1.498;2023-06-22T08:53:05;3.40;;;3.10;;
41897;SDS011;27576;53.366;-1.498;2023-06-22T08:55:31;4.10;;;3.70;;
41897;SDS011;27576;53.366;-1.498;2023-06-22T08:57:57;5.63;;;3.80;;
41897;SDS011;27576;53.366;-1.498;2023-06-22T09:00:22;5.65;;;4.30;;
41897;SDS011;27576;53.366;-1.498;2023-06-22T09:02:48;4.40;;;3.42;;
41897;SDS011;27576;53.366;-1.498;2023-06-22T09:05:14;6.00;;;4.15;;
41897;SDS011;27576;53.366;-1.498;2023-06-22T09:07:39;7.80;;;4.00;;
41897;SDS011;27576;53.366;-1.498;2023-06-22T09:10:05;5.50;;;4.30;;
41897;SDS011;27576;53.366;-1.498;2023-06-22T09:12:31;5.20;;;3.78;;
41897;SDS011;27576;53.366;-1.498;2023-06-22T09:14:58;5.20;;;4.70;;
41897;SDS011;27576;53.366;-1.498;2023-06-22T09:17:26;5.03;;;4.07;;
41897;SDS011;27576;53.366;-1.498;2023-06-22T09:19:52;4.60;;;4.20;;
41897;SDS011;27576;53.366;-1.498;2023-06-22T09:22:17;4.97;;;4.38;;
41897;SDS011;27576;53.366;-1.498;2023-06-22T09:24:42;6.18;;;4.18;;
41897;SDS011;27576;53.366;-1.498;2023-06-22T09:27:08;4.60;;;4.00;;
41897;SDS011;27576;53.366;-1.498;2023-06-22T09:29:34;5.70;;;4.28;;
41897;SDS011;27576;53.366;-1.498;2023-06-22T09:32:00;4.88;;;4.10;;
41897;SDS011;27576;53.366;-1.498;2023-06-22T09:34:25;7.00;;;4.43;;
41897;SDS011;27576;53.366;-1.498;2023-06-22T09:36:51;7.72;;;4.50;;
41897;SDS011;27576;53.366;-1.498;2023-06-22T09:39:17;6.72;;;4.35;;
41897;SDS011;27576;53.366;-1.498;2023-06-22T09:41:43;5.40;;;3.80;;
41897;SDS011;27576;53.366;-1.498;2023-06-22T09:44:08;4.43;;;3.90;;
41897;SDS011;27576;53.366;-1.498;2023-06-22T09:46:34;5.07;;;4.00;;
41897;SDS011;27576;53.366;-1.498;2023-06-22T09:48:59;5.95;;;4.35;;
41897;SDS011;27576;53.366;-1.498;2023-06-22T09:51:24;5.85;;;4.80;;
41897;SDS011;27576;53.366;-1.498;2023-06-22T09:53:50;4.93;;;4.35;;
41897;SDS011;27576;53.366;-1.498;2023-06-22T09:56:16;6.75;;;5.15;;
41897;SDS011;27576;53.366;-1.498;2023-06-22T09:58:42;6.93;;;4.13;;
41897;SDS011;27576;53.366;-1.498;2023-06-22T10:01:09;4.15;;;3.40;;
41897;SDS011;27576;53.366;-1.498;2023-06-22T10:03:35;4.65;;;4.03;;
41897;SDS011;27576;53.366;-1.498;2023-06-22T10:06:01;6.50;;;4.10;;
41897;SDS011;27576;53.366;-1.498;2023-06-22T10:08:26;5.05;;;4.25;;
41897;SDS011;27576;53.366;-1.498;2023-06-22T10:10:52;5.18;;;4.20;;
41897;SDS011;27576;53.366;-1.498;2023-06-22T10:13:17;5.03;;;4.45;;
41897;SDS011;27576;53.366;-1.498;2023-06-22T10:15:43;6.05;;;4.75;;
41897;SDS011;27576;53.366;-1.498;2023-06-22T10:18:14;8.02;;;4.65;;
41897;SDS011;27576;53.366;-1.498;2023-06-22T10:20:41;10.82;;;5.10;;
41897;SDS011;27576;53.366;-1.498;2023-06-22T10:23:06;6.22;;;4.63;;
41897;SDS011;27576;53.366;-1.498;2023-06-22T10:25:31;6.35;;;4.28;;
41897;SDS011;27576;53.366;-1.498;2023-06-22T10:27:57;5.25;;;4.75;;
41897;SDS011;27576;53.366;-1.498;2023-06-22T10:30:22;6.30;;;4.40;;
41897;SDS011;27576;53.366;-1.498;2023-06-22T10:32:48;9.27;;;4.80;;
41897;SDS011;27576;53.366;-1.498;2023-06-22T10:35:14;10.25;;;5.45;;
41897;SDS011;27576;53.366;-1.498;2023-06-22T10:37:41;6.53;;;5.15;;
41897;SDS011;27576;53.366;-1.498;2023-06-22T10:40:08;6.10;;;5.18;;
41897;SDS011;27576;53.366;-1.498;2023-06-22T10:42:34;6.00;;;5.32;;
41897;SDS011;27576;53.366;-1.498;2023-06-22T10:44:59;7.68;;;5.75;;
41897;SDS011;27576;53.366;-1.498;2023-06-22T10:47:25;7.20;;;5.70;;
41897;SDS011;27576;53.366;-1.498;2023-06-22T10:49:50;10.45;;;5.70;;
41897;SDS011;27576;53.366;-1.498;2023-06-22T10:52:15;7.82;;;5.90;;
41897;SDS011;27576;53.366;-1.498;2023-06-22T10:54:41;7.43;;;5.38;;
41897;SDS011;27576;53.366;-1.498;2023-06-22T10:57:06;11.88;;;6.38;;
41897;SDS011;27576;53.366;-1.498;2023-06-22T10:59:32;7.03;;;5.50;;
41897;SDS011;27576;53.366;-1.498;2023-06-22T11:01:57;9.30;;;6.40;;
41897;SDS011;27576;53.366;-1.498;2023-06-22T11:04:23;8.68;;;5.78;;
41897;SDS011;27576;53.366;-1.498;2023-06-22T11:06:48;9.88;;;5.75;;
41897;SDS011;27576;53.366;-1.498;2023-06-22T11:09:14;7.53;;;5.00;;
41897;SDS011;27576;53.366;-1.498;2023-06-22T11:11:45;8.98;;;6.47;;
41897;SDS011;27576;53.366;-1.498;2023-06-22T11:14:10;8.63;;;6.03;;
41897;SDS011;27576;53.366;-1.498;2023-06-22T11:16:36;8.55;;;5.80;;
41897;SDS011;27576;53.366;-1.498;2023-06-22T11:19:01;11.00;;;6.70;;
41897;SDS011;27576;53.366;-1.498;2023-06-22T11:21:28;6.63;;;5.50;;
41897;SDS011;27576;53.366;-1.498;2023-06-22T11:23:53;8.23;;;5.65;;
41897;SDS011;27576;53.366;-1.498;2023-06-22T11:26:19;10.07;;;5.93;;
41897;SDS011;27576;53.366;-1.498;2023-06-22T11:28:46;6.88;;;4.90;;
41897;SDS011;27576;53.366;-1.498;2023-06-22T11:31:11;7.70;;;6.40;;
41897;SDS011;27576;53.366;-1.498;2023-06-22T11:33:37;8.23;;;6.05;;
41897;SDS011;27576;53.366;-1.498;2023-06-22T11:36:02;8.75;;;6.65;;
41897;SDS011;27576;53.366;-1.498;2023-06-22T11:38:28;7.30;;;6.18;;
41897;SDS011;27576;53.366;-1.498;2023-06-22T11:40:53;9.00;;;6.20;;
41897;SDS011;27576;53.366;-1.498;2023-06-22T11:43:19;9.80;;;6.15;;
41897;SDS011;27576;53.366;-1.498;2023-06-22T11:45:44;8.77;;;6.80;;
41897;SDS011;27576;53.366;-1.498;2023-06-22T11:48:10;9.48;;;7.50;;
41897;SDS011;27576;53.366;-1.498;2023-06-22T11:50:35;10.73;;;6.97;;
41897;SDS011;27576;53.366;-1.498;2023-06-22T11:53:01;7.25;;;6.28;;
41897;SDS011;27576;53.366;-1.498;2023-06-22T11:55:28;12.50;;;6.70;;
41897;SDS011;27576;53.366;-1.498;2023-06-22T11:57:54;9.60;;;6.68;;
41897;SDS011;27576;53.366;-1.498;2023-06-22T12:00:23;8.55;;;6.57;;
41897;SDS011;27576;53.366;-1.498;2023-06-22T12:02:49;8.85;;;6.05;;
41897;SDS011;27576;53.366;-1.498;2023-06-22T12:05:21;9.50;;;7.50;;
41897;SDS011;27576;53.366;-1.498;2023-06-22T12:07:47;9.90;;;7.32;;
41897;SDS011;27576;53.366;-1.498;2023-06-22T12:10:13;8.63;;;6.65;;
41897;SDS011;27576;53.366;-1.498;2023-06-22T12:12:39;9.55;;;7.15;;
41897;SDS011;27576;53.366;-1.498;2023-06-22T12:15:05;9.40;;;6.95;;
41897;SDS011;27576;53.366;-1.498;2023-06-22T12:17:30;8.68;;;7.15;;
41897;SDS011;27576;53.366;-1.498;2023-06-22T12:19:56;9.52;;;5.78;;
41897;SDS011;27576;53.366;-1.498;2023-06-22T12:22:21;7.57;;;6.00;;
41897;SDS011;27576;53.366;-1.498;2023-06-22T12:24:47;9.15;;;5.97;;
41897;SDS011;27576;53.366;-1.498;2023-06-22T12:27:12;10.52;;;7.07;;
41897;SDS011;27576;53.366;-1.498;2023-06-22T12:29:38;8.15;;;6.63;;
41897;SDS011;27576;53.366;-1.498;2023-06-22T12:32:03;8.18;;;6.07;;
41897;SDS011;27576;53.366;-1.498;2023-06-22T12:34:29;8.70;;;5.93;;
41897;SDS011;27576;53.366;-1.498;2023-06-22T12:36:54;7.25;;;6.07;;
41897;SDS011;27576;53.366;-1.498;2023-06-22T12:39:20;7.47;;;5.47;;
41897;SDS011;27576;53.366;-1.498;2023-06-22T12:41:45;6.85;;;4.22;;
41897;SDS011;27576;53.366;-1.498;2023-06-22T12:44:11;8.60;;;4.25;;
41897;SDS011;27576;53.366;-1.498;2023-06-22T12:46:36;4.25;;;3.70;;
41897;SDS011;27576;53.366;-1.498;2023-06-22T12:49:02;3.85;;;3.45;;
41897;SDS011;27576;53.366;-1.498;2023-06-22T12:51:29;8.32;;;4.07;;
41897;SDS011;27576;53.366;-1.498;2023-06-22T12:53:54;6.35;;;3.85;;
41897;SDS011;27576;53.366;-1.498;2023-06-22T12:56:20;5.25;;;3.58;;
41897;SDS011;27576;53.366;-1.498;2023-06-22T12:58:45;5.13;;;3.85;;
41897;SDS011;27576;53.366;-1.498;2023-06-22T13:01:10;6.22;;;3.65;;
41897;SDS011;27576;53.366;-1.498;2023-06-22T13:03:36;5.97;;;4.65;;
41897;SDS011;27576;53.366;-1.498;2023-06-22T13:06:01;4.10;;;3.58;;
41897;SDS011;27576;53.366;-1.498;2023-06-22T13:08:28;4.28;;;3.38;;
41897;SDS011;27576;53.366;-1.498;2023-06-22T13:10:54;4.68;;;3.40;;
41897;SDS011;27576;53.366;-1.498;2023-06-22T13:13:21;4.97;;;3.90;;
41897;SDS011;27576;53.366;-1.498;2023-06-22T13:15:49;3.60;;;3.30;;
41897;SDS011;27576;53.366;-1.498;2023-06-22T13:18:15;3.35;;;2.83;;
41897;SDS011;27576;53.366;-1.498;2023-06-22T13:20:40;3.88;;;3.47;;
41897;SDS011;27576;53.366;-1.498;2023-06-22T13:23:06;3.67;;;3.28;;
41897;SDS011;27576;53.366;-1.498;2023-06-22T13:25:31;3.63;;;3.30;;
41897;SDS011;27576;53.366;-1.498;2023-06-22T13:27:57;4.47;;;3.17;;
41897;SDS011;27576;53.366;-1.498;2023-06-22T13:30:22;3.95;;;3.38;;
41897;SDS011;27576;53.366;-1.498;2023-06-22T13:32:48;7.97;;;3.50;;
41897;SDS011;27576;53.366;-1.498;2023-06-22T13:35:13;5.90;;;3.30;;
41897;SDS011;27576;53.366;-1.498;2023-06-22T13:37:38;3.45;;;3.15;;
41897;SDS011;27576;53.366;-1.498;2023-06-22T13:40:05;3.85;;;3.28;;
41897;SDS011;27576;53.366;-1.498;2023-06-22T13:42:32;3.72;;;3.42;;
41897;SDS011;27576;53.366;-1.498;2023-06-22T13:44:58;3.33;;;3.00;;
41897;SDS011;27576;53.366;-1.498;2023-06-22T13:47:23;5.82;;;3.10;;
41897;SDS011;27576;53.366;-1.498;2023-06-22T13:49:48;2.60;;;2.40;;
41897;SDS011;27576;53.366;-1.498;2023-06-22T13:52:14;3.78;;;2.90;;
41897;SDS011;27576;53.366;-1.498;2023-06-22T13:54:39;3.10;;;2.80;;
41897;SDS011;27576;53.366;-1.498;2023-06-22T13:57:04;3.17;;;2.85;;
41897;SDS011;27576;53.366;-1.498;2023-06-22T13:59:30;3.17;;;2.40;;
41897;SDS011;27576;53.366;-1.498;2023-06-22T14:01:56;2.45;;;2.17;;
41897;SDS011;27576;53.366;-1.498;2023-06-22T14:04:22;4.40;;;2.70;;
41897;SDS011;27576;53.366;-1.498;2023-06-22T14:06:48;4.85;;;3.28;;
41897;SDS011;27576;53.366;-1.498;2023-06-22T14:09:15;2.92;;;2.70;;
41897;SDS011;27576;53.366;-1.498;2023-06-22T14:11:40;4.88;;;2.80;;
41897;SDS011;27576;53.366;-1.498;2023-06-22T14:14:05;2.90;;;2.70;;
41897;SDS011;27576;53.366;-1.498;2023-06-22T14:16:31;3.10;;;2.80;;
41897;SDS011;27576;53.366;-1.498;2023-06-22T14:18:56;2.97;;;2.60;;
41897;SDS011;27576;53.366;-1.498;2023-06-22T14:21:21;4.13;;;2.70;;
41897;SDS011;27576;53.366;-1.498;2023-06-22T14:23:47;3.03;;;2.72;;
41897;SDS011;27576;53.366;-1.498;2023-06-22T14:26:14;4.60;;;2.75;;
41897;SDS011;27576;53.366;-1.498;2023-06-22T14:28:43;5.03;;;2.92;;
41897;SDS011;27576;53.366;-1.498;2023-06-22T14:31:18;2.72;;;2.53;;
41897;SDS011;27576;53.366;-1.498;2023-06-22T14:33:48;3.00;;;2.70;;